sensor_id;sensor_type;location;lat;lon;timestamp;temperature;humidity
54960;DHT22;40860;51.710;8.736;2023-07-16T00:02:02;21.40;90.90
54960;DHT22;40860;51.710;8.736;2023-07-16T00:06:05;21.30;88.40
54960;DHT22;40860;51.710;8.736;2023-07-16T00:10:10;21.30;86.30
54960;DHT22;40860;51.710;8.736;2023-07-16T00:14:13;21.30;85.00
54960;DHT22;40860;51.710;8.736;2023-07-16T00:18:15;21.20;83.80
54960;DHT22;40860;51.710;8.736;2023-07-16T00:22:18;21.20;83.90
54960;DHT22;40860;51.710;8.736;2023-07-16T00:26:23;21.00;83.10
54960;DHT22;40860;51.710;8.736;2023-07-16T00:30:26;21.00;83.00
54960;DHT22;40860;51.710;8.736;2023-07-16T00:34:28;21.00;82.70
54960;DHT22;40860;51.710;8.736;2023-07-16T00:38:31;20.90;82.70
54960;DHT22;40860;51.710;8.736;2023-07-16T00:42:36;20.90;83.00
54960;DHT22;40860;51.710;8.736;2023-07-16T00:46:39;20.80;83.50
54960;DHT22;40860;51.710;8.736;2023-07-16T00:50:42;20.70;83.50
54960;DHT22;40860;51.710;8.736;2023-07-16T00:54:45;20.60;84.70
54960;DHT22;40860;51.710;8.736;2023-07-16T00:58:50;20.60;85.10
54960;DHT22;40860;51.710;8.736;2023-07-16T01:02:55;20.50;85.20
54960;DHT22;40860;51.710;8.736;2023-07-16T01:07:01;20.50;85.00
54960;DHT22;40860;51.710;8.736;2023-07-16T01:11:07;20.50;85.00
54960;DHT22;40860;51.710;8.736;2023-07-16T01:15:12;20.40;85.50
54960;DHT22;40860;51.710;8.736;2023-07-16T01:19:15;20.30;85.70
54960;DHT22;40860;51.710;8.736;2023-07-16T01:23:29;20.10;86.70
54960;DHT22;40860;51.710;8.736;2023-07-16T01:27:55;19.90;87.50
54960;DHT22;40860;51.710;8.736;2023-07-16T01:32:05;20.00;88.00
54960;DHT22;40860;51.710;8.736;2023-07-16T01:36:11;20.00;87.40
54960;DHT22;40860;51.710;8.736;2023-07-16T01:40:14;19.90;87.60
54960;DHT22;40860;51.710;8.736;2023-07-16T01:44:17;20.00;88.10
54960;DHT22;40860;51.710;8.736;2023-07-16T01:48:29;20.00;87.70
54960;DHT22;40860;51.710;8.736;2023-07-16T01:52:33;20.00;87.70
54960;DHT22;40860;51.710;8.736;2023-07-16T01:56:36;19.80;88.00
54960;DHT22;40860;51.710;8.736;2023-07-16T02:00:39;19.80;87.80
54960;DHT22;40860;51.710;8.736;2023-07-16T02:04:43;19.80;88.20
54960;DHT22;40860;51.710;8.736;2023-07-16T02:08:47;19.70;88.40
54960;DHT22;40860;51.710;8.736;2023-07-16T02:12:50;19.70;88.40
54960;DHT22;40860;51.710;8.736;2023-07-16T02:16:52;19.70;89.30
54960;DHT22;40860;51.710;8.736;2023-07-16T02:20:57;19.60;89.20
54960;DHT22;40860;51.710;8.736;2023-07-16T02:25:00;19.70;89.00
54960;DHT22;40860;51.710;8.736;2023-07-16T02:29:03;19.70;89.50
54960;DHT22;40860;51.710;8.736;2023-07-16T02:33:10;19.70;89.50
54960;DHT22;40860;51.710;8.736;2023-07-16T02:37:14;19.60;90.00
54960;DHT22;40860;51.710;8.736;2023-07-16T02:41:17;19.60;90.10
54960;DHT22;40860;51.710;8.736;2023-07-16T02:45:20;19.60;90.30
54960;DHT22;40860;51.710;8.736;2023-07-16T02:49:23;19.60;90.30
54960;DHT22;40860;51.710;8.736;2023-07-16T02:53:27;19.60;90.50
54960;DHT22;40860;51.710;8.736;2023-07-16T02:57:30;19.50;90.70
54960;DHT22;40860;51.710;8.736;2023-07-16T03:01:33;19.50;90.80
54960;DHT22;40860;51.710;8.736;2023-07-16T03:05:36;19.50;90.90
54960;DHT22;40860;51.710;8.736;2023-07-16T03:09:41;19.50;91.10
54960;DHT22;40860;51.710;8.736;2023-07-16T03:13:44;19.40;91.40
54960;DHT22;40860;51.710;8.736;2023-07-16T03:17:47;19.30;91.70
54960;DHT22;40860;51.710;8.736;2023-07-16T03:21:51;19.20;91.90
54960;DHT22;40860;51.710;8.736;2023-07-16T03:25:56;19.20;92.00
54960;DHT22;40860;51.710;8.736;2023-07-16T03:29:59;19.10;92.40
54960;DHT22;40860;51.710;8.736;2023-07-16T03:34:02;19.00;92.50
54960;DHT22;40860;51.710;8.736;2023-07-16T03:38:06;18.90;92.70
54960;DHT22;40860;51.710;8.736;2023-07-16T03:42:10;18.90;92.80
54960;DHT22;40860;51.710;8.736;2023-07-16T03:46:13;18.90;92.80
54960;DHT22;40860;51.710;8.736;2023-07-16T03:50:16;18.80;92.80
54960;DHT22;40860;51.710;8.736;2023-07-16T03:54:19;18.70;93.00
54960;DHT22;40860;51.710;8.736;2023-07-16T03:58:24;18.80;92.70
54960;DHT22;40860;51.710;8.736;2023-07-16T04:02:29;18.90;92.30
54960;DHT22;40860;51.710;8.736;2023-07-16T04:06:32;19.00;92.10
54960;DHT22;40860;51.710;8.736;2023-07-16T04:10:35;19.00;91.90
54960;DHT22;40860;51.710;8.736;2023-07-16T04:14:40;19.00;91.80
54960;DHT22;40860;51.710;8.736;2023-07-16T04:18:43;19.00;91.80
54960;DHT22;40860;51.710;8.736;2023-07-16T04:22:45;19.00;91.70
54960;DHT22;40860;51.710;8.736;2023-07-16T04:26:48;19.00;91.50
54960;DHT22;40860;51.710;8.736;2023-07-16T04:30:53;19.00;91.50
54960;DHT22;40860;51.710;8.736;2023-07-16T04:34:56;19.10;91.40
54960;DHT22;40860;51.710;8.736;2023-07-16T04:38:59;19.00;91.30
54960;DHT22;40860;51.710;8.736;2023-07-16T04:43:01;19.10;91.10
54960;DHT22;40860;51.710;8.736;2023-07-16T04:47:06;19.10;90.80
54960;DHT22;40860;51.710;8.736;2023-07-16T04:51:08;19.20;90.60
54960;DHT22;40860;51.710;8.736;2023-07-16T04:55:11;19.20;90.40
54960;DHT22;40860;51.710;8.736;2023-07-16T04:59:14;19.20;90.20
54960;DHT22;40860;51.710;8.736;2023-07-16T05:03:19;19.30;90.10
54960;DHT22;40860;51.710;8.736;2023-07-16T05:07:21;19.30;90.00
54960;DHT22;40860;51.710;8.736;2023-07-16T05:11:24;19.40;89.00
54960;DHT22;40860;51.710;8.736;2023-07-16T05:15:28;19.40;88.60
54960;DHT22;40860;51.710;8.736;2023-07-16T05:19:32;19.40;88.00
54960;DHT22;40860;51.710;8.736;2023-07-16T05:23:35;19.50;87.60
54960;DHT22;40860;51.710;8.736;2023-07-16T05:27:38;19.50;86.70
54960;DHT22;40860;51.710;8.736;2023-07-16T05:31:42;19.50;86.20
54960;DHT22;40860;51.710;8.736;2023-07-16T05:35:48;19.60;85.50
54960;DHT22;40860;51.710;8.736;2023-07-16T05:39:51;19.60;84.70
54960;DHT22;40860;51.710;8.736;2023-07-16T05:43:54;19.70;82.80
54960;DHT22;40860;51.710;8.736;2023-07-16T05:47:57;19.70;82.10
54960;DHT22;40860;51.710;8.736;2023-07-16T05:52:02;19.80;81.30
54960;DHT22;40860;51.710;8.736;2023-07-16T05:56:05;19.80;81.30
54960;DHT22;40860;51.710;8.736;2023-07-16T06:00:09;19.90;80.60
54960;DHT22;40860;51.710;8.736;2023-07-16T06:04:16;19.90;79.60
54960;DHT22;40860;51.710;8.736;2023-07-16T06:08:21;20.00;79.60
54960;DHT22;40860;51.710;8.736;2023-07-16T06:12:23;20.10;78.50
54960;DHT22;40860;51.710;8.736;2023-07-16T06:16:26;20.20;78.30
54960;DHT22;40860;51.710;8.736;2023-07-16T06:20:29;20.20;77.50
54960;DHT22;40860;51.710;8.736;2023-07-16T06:24:33;20.20;76.50
54960;DHT22;40860;51.710;8.736;2023-07-16T06:28:36;20.20;76.20
54960;DHT22;40860;51.710;8.736;2023-07-16T06:32:39;20.20;77.00
54960;DHT22;40860;51.710;8.736;2023-07-16T06:36:42;20.30;76.10
54960;DHT22;40860;51.710;8.736;2023-07-16T06:40:50;20.40;74.50
54960;DHT22;40860;51.710;8.736;2023-07-16T06:44:53;20.40;75.00
54960;DHT22;40860;51.710;8.736;2023-07-16T06:48:56;20.50;74.70
54960;DHT22;40860;51.710;8.736;2023-07-16T06:52:59;20.50;75.00
54960;DHT22;40860;51.710;8.736;2023-07-16T06:57:04;20.40;74.30
54960;DHT22;40860;51.710;8.736;2023-07-16T07:01:07;20.50;73.10
54960;DHT22;40860;51.710;8.736;2023-07-16T07:05:10;20.50;72.20
54960;DHT22;40860;51.710;8.736;2023-07-16T07:09:13;20.60;72.40
54960;DHT22;40860;51.710;8.736;2023-07-16T07:13:17;20.60;71.30
54960;DHT22;40860;51.710;8.736;2023-07-16T07:17:20;20.70;71.60
54960;DHT22;40860;51.710;8.736;2023-07-16T07:21:23;20.90;70.70
54960;DHT22;40860;51.710;8.736;2023-07-16T07:25:26;21.10;70.20
54960;DHT22;40860;51.710;8.736;2023-07-16T07:29:30;21.60;70.40
54960;DHT22;40860;51.710;8.736;2023-07-16T07:33:33;22.00;65.40
54960;DHT22;40860;51.710;8.736;2023-07-16T07:37:36;22.30;66.80
54960;DHT22;40860;51.710;8.736;2023-07-16T07:41:39;23.80;64.00
54960;DHT22;40860;51.710;8.736;2023-07-16T07:45:43;23.90;60.00
54960;DHT22;40860;51.710;8.736;2023-07-16T07:49:53;23.00;59.60
54960;DHT22;40860;51.710;8.736;2023-07-16T07:53:56;24.30;60.30
54960;DHT22;40860;51.710;8.736;2023-07-16T07:57:58;25.10;56.60
54960;DHT22;40860;51.710;8.736;2023-07-16T08:02:03;24.30;55.30
54960;DHT22;40860;51.710;8.736;2023-07-16T08:06:06;23.70;56.30
54960;DHT22;40860;51.710;8.736;2023-07-16T08:10:10;25.00;55.50
54960;DHT22;40860;51.710;8.736;2023-07-16T08:14:13;24.60;52.90
54960;DHT22;40860;51.710;8.736;2023-07-16T08:18:17;24.00;53.70
54960;DHT22;40860;51.710;8.736;2023-07-16T08:22:20;24.30;54.70
54960;DHT22;40860;51.710;8.736;2023-07-16T08:26:23;24.40;53.20
54960;DHT22;40860;51.710;8.736;2023-07-16T08:30:26;24.40;53.60
54960;DHT22;40860;51.710;8.736;2023-07-16T08:34:30;24.10;51.80
54960;DHT22;40860;51.710;8.736;2023-07-16T08:38:33;23.50;52.70
54960;DHT22;40860;51.710;8.736;2023-07-16T08:42:36;23.60;53.20
54960;DHT22;40860;51.710;8.736;2023-07-16T08:46:40;23.90;52.80
54960;DHT22;40860;51.710;8.736;2023-07-16T08:50:45;24.00;52.90
54960;DHT22;40860;51.710;8.736;2023-07-16T08:54:49;23.70;52.80
54960;DHT22;40860;51.710;8.736;2023-07-16T08:58:53;23.30;52.70
54960;DHT22;40860;51.710;8.736;2023-07-16T09:02:57;23.10;53.00
54960;DHT22;40860;51.710;8.736;2023-07-16T09:07:02;23.10;53.60
54960;DHT22;40860;51.710;8.736;2023-07-16T09:11:05;23.30;53.30
54960;DHT22;40860;51.710;8.736;2023-07-16T09:15:08;23.60;52.20
54960;DHT22;40860;51.710;8.736;2023-07-16T09:19:12;23.70;52.70
54960;DHT22;40860;51.710;8.736;2023-07-16T09:23:18;23.90;51.20
54960;DHT22;40860;51.710;8.736;2023-07-16T09:27:27;24.20;50.90
54960;DHT22;40860;51.710;8.736;2023-07-16T09:35:36;24.50;51.10
54960;DHT22;40860;51.710;8.736;2023-07-16T09:39:41;24.70;50.10
54960;DHT22;40860;51.710;8.736;2023-07-16T09:43:44;24.80;50.40
54960;DHT22;40860;51.710;8.736;2023-07-16T09:47:47;25.00;50.10
54960;DHT22;40860;51.710;8.736;2023-07-16T09:51:50;24.90;49.40
54960;DHT22;40860;51.710;8.736;2023-07-16T09:55:56;24.70;48.90
54960;DHT22;40860;51.710;8.736;2023-07-16T10:00:03;24.80;48.30
54960;DHT22;40860;51.710;8.736;2023-07-16T10:04:14;24.80;47.90
54960;DHT22;40860;51.710;8.736;2023-07-16T10:08:21;24.90;48.50
54960;DHT22;40860;51.710;8.736;2023-07-16T10:12:26;24.80;48.50
54960;DHT22;40860;51.710;8.736;2023-07-16T10:16:36;24.60;48.80
54960;DHT22;40860;51.710;8.736;2023-07-16T10:20:40;24.20;49.20
54960;DHT22;40860;51.710;8.736;2023-07-16T10:24:51;24.30;49.50
54960;DHT22;40860;51.710;8.736;2023-07-16T10:28:57;24.50;49.80
54960;DHT22;40860;51.710;8.736;2023-07-16T10:33:03;24.60;48.70
54960;DHT22;40860;51.710;8.736;2023-07-16T10:37:08;25.10;49.70
54960;DHT22;40860;51.710;8.736;2023-07-16T10:41:11;25.60;49.20
54960;DHT22;40860;51.710;8.736;2023-07-16T10:45:15;26.00;48.70
54960;DHT22;40860;51.710;8.736;2023-07-16T10:49:26;26.00;47.80
54960;DHT22;40860;51.710;8.736;2023-07-16T10:53:29;25.90;47.30
54960;DHT22;40860;51.710;8.736;2023-07-16T10:57:32;26.00;46.90
54960;DHT22;40860;51.710;8.736;2023-07-16T11:01:36;26.30;46.90
54960;DHT22;40860;51.710;8.736;2023-07-16T11:05:39;26.10;46.00
54960;DHT22;40860;51.710;8.736;2023-07-16T11:09:44;25.40;46.70
54960;DHT22;40860;51.710;8.736;2023-07-16T11:13:47;25.00;47.20
54960;DHT22;40860;51.710;8.736;2023-07-16T11:17:51;25.20;47.30
54960;DHT22;40860;51.710;8.736;2023-07-16T11:21:54;25.50;47.20
54960;DHT22;40860;51.710;8.736;2023-07-16T11:25:57;25.60;46.60
54960;DHT22;40860;51.710;8.736;2023-07-16T11:30:05;25.80;45.90
54960;DHT22;40860;51.710;8.736;2023-07-16T11:34:12;26.10;45.90
54960;DHT22;40860;51.710;8.736;2023-07-16T11:38:17;26.50;45.40
54960;DHT22;40860;51.710;8.736;2023-07-16T11:42:23;26.70;44.80
54960;DHT22;40860;51.710;8.736;2023-07-16T11:46:30;26.60;44.70
54960;DHT22;40860;51.710;8.736;2023-07-16T11:50:35;26.80;44.80
54960;DHT22;40860;51.710;8.736;2023-07-16T11:54:38;27.10;44.60
54960;DHT22;40860;51.710;8.736;2023-07-16T11:58:40;27.30;43.70
54960;DHT22;40860;51.710;8.736;2023-07-16T12:02:44;27.60;43.00
54960;DHT22;40860;51.710;8.736;2023-07-16T12:06:54;27.20;43.20
54960;DHT22;40860;51.710;8.736;2023-07-16T12:10:57;26.80;44.30
54960;DHT22;40860;51.710;8.736;2023-07-16T12:15:04;27.20;43.90
54960;DHT22;40860;51.710;8.736;2023-07-16T12:19:08;27.50;43.00
54960;DHT22;40860;51.710;8.736;2023-07-16T12:23:12;27.30;42.50
54960;DHT22;40860;51.710;8.736;2023-07-16T12:27:15;27.50;43.40
54960;DHT22;40860;51.710;8.736;2023-07-16T12:31:18;27.50;42.50
54960;DHT22;40860;51.710;8.736;2023-07-16T12:35:22;27.10;42.50
54960;DHT22;40860;51.710;8.736;2023-07-16T12:39:26;27.40;43.70
54960;DHT22;40860;51.710;8.736;2023-07-16T12:43:29;27.20;42.50
54960;DHT22;40860;51.710;8.736;2023-07-16T12:47:37;26.70;42.20
54960;DHT22;40860;51.710;8.736;2023-07-16T12:51:41;26.60;42.60
54960;DHT22;40860;51.710;8.736;2023-07-16T12:55:45;26.80;42.40
54960;DHT22;40860;51.710;8.736;2023-07-16T12:59:48;26.90;42.70
54960;DHT22;40860;51.710;8.736;2023-07-16T13:03:51;26.90;42.30
54960;DHT22;40860;51.710;8.736;2023-07-16T13:07:54;27.00;42.70
54960;DHT22;40860;51.710;8.736;2023-07-16T13:11:58;27.00;41.60
54960;DHT22;40860;51.710;8.736;2023-07-16T13:16:01;26.70;41.80
54960;DHT22;40860;51.710;8.736;2023-07-16T13:20:06;26.70;41.60
54960;DHT22;40860;51.710;8.736;2023-07-16T13:24:11;26.70;42.00
54960;DHT22;40860;51.710;8.736;2023-07-16T13:28:16;26.70;42.20
54960;DHT22;40860;51.710;8.736;2023-07-16T13:32:19;26.90;42.90
54960;DHT22;40860;51.710;8.736;2023-07-16T13:36:22;27.00;42.50
54960;DHT22;40860;51.710;8.736;2023-07-16T13:40:25;26.70;42.20
54960;DHT22;40860;51.710;8.736;2023-07-16T13:44:30;26.50;42.50
54960;DHT22;40860;51.710;8.736;2023-07-16T13:48:33;26.30;42.20
54960;DHT22;40860;51.710;8.736;2023-07-16T13:52:48;26.10;42.20
54960;DHT22;40860;51.710;8.736;2023-07-16T13:56:52;26.00;43.10
54960;DHT22;40860;51.710;8.736;2023-07-16T14:00:56;25.90;43.00
54960;DHT22;40860;51.710;8.736;2023-07-16T14:04:59;25.80;42.70
54960;DHT22;40860;51.710;8.736;2023-07-16T14:09:02;25.70;42.70
54960;DHT22;40860;51.710;8.736;2023-07-16T14:13:06;25.70;43.20
54960;DHT22;40860;51.710;8.736;2023-07-16T14:17:11;25.80;43.50
54960;DHT22;40860;51.710;8.736;2023-07-16T14:21:14;25.90;43.60
54960;DHT22;40860;51.710;8.736;2023-07-16T14:25:17;25.60;43.80
54960;DHT22;40860;51.710;8.736;2023-07-16T14:29:20;25.50;44.00
54960;DHT22;40860;51.710;8.736;2023-07-16T14:33:25;25.50;43.80
54960;DHT22;40860;51.710;8.736;2023-07-16T14:37:29;25.60;43.80
54960;DHT22;40860;51.710;8.736;2023-07-16T14:41:32;25.80;43.80
54960;DHT22;40860;51.710;8.736;2023-07-16T14:45:35;25.80;43.80
54960;DHT22;40860;51.710;8.736;2023-07-16T14:49:40;25.70;43.70
54960;DHT22;40860;51.710;8.736;2023-07-16T14:53:43;25.50;44.20
54960;DHT22;40860;51.710;8.736;2023-07-16T14:57:46;25.50;44.00
54960;DHT22;40860;51.710;8.736;2023-07-16T15:01:49;25.40;43.80
54960;DHT22;40860;51.710;8.736;2023-07-16T15:05:57;25.50;43.90
54960;DHT22;40860;51.710;8.736;2023-07-16T15:10:00;25.80;43.90
54960;DHT22;40860;51.710;8.736;2023-07-16T15:14:03;26.10;43.80
54960;DHT22;40860;51.710;8.736;2023-07-16T15:18:07;25.90;43.70
54960;DHT22;40860;51.710;8.736;2023-07-16T15:22:11;26.00;44.30
54960;DHT22;40860;51.710;8.736;2023-07-16T15:26:14;25.90;45.20
54960;DHT22;40860;51.710;8.736;2023-07-16T15:30:18;26.00;45.00
54960;DHT22;40860;51.710;8.736;2023-07-16T15:34:22;26.20;45.00
54960;DHT22;40860;51.710;8.736;2023-07-16T15:38:26;26.60;44.50
54960;DHT22;40860;51.710;8.736;2023-07-16T15:42:29;26.50;44.10
54960;DHT22;40860;51.710;8.736;2023-07-16T15:46:35;26.50;44.30
54960;DHT22;40860;51.710;8.736;2023-07-16T15:50:38;26.50;44.30
54960;DHT22;40860;51.710;8.736;2023-07-16T15:54:43;26.60;44.20
54960;DHT22;40860;51.710;8.736;2023-07-16T15:58:46;26.90;44.70
54960;DHT22;40860;51.710;8.736;2023-07-16T16:02:49;26.90;43.40
54960;DHT22;40860;51.710;8.736;2023-07-16T16:06:55;26.90;43.60
54960;DHT22;40860;51.710;8.736;2023-07-16T16:11:01;26.80;44.10
54960;DHT22;40860;51.710;8.736;2023-07-16T16:15:05;27.00;44.70
54960;DHT22;40860;51.710;8.736;2023-07-16T16:19:09;27.50;44.30
54960;DHT22;40860;51.710;8.736;2023-07-16T16:23:14;27.90;43.80
54960;DHT22;40860;51.710;8.736;2023-07-16T16:27:19;27.90;43.30
54960;DHT22;40860;51.710;8.736;2023-07-16T16:31:23;27.80;42.80
54960;DHT22;40860;51.710;8.736;2023-07-16T16:35:26;27.50;43.90
54960;DHT22;40860;51.710;8.736;2023-07-16T16:39:29;27.60;43.70
54960;DHT22;40860;51.710;8.736;2023-07-16T16:43:33;27.50;43.60
54960;DHT22;40860;51.710;8.736;2023-07-16T16:47:38;27.30;44.40
54960;DHT22;40860;51.710;8.736;2023-07-16T16:51:42;27.30;44.50
54960;DHT22;40860;51.710;8.736;2023-07-16T16:55:44;27.00;44.20
54960;DHT22;40860;51.710;8.736;2023-07-16T16:59:49;26.70;44.80
54960;DHT22;40860;51.710;8.736;2023-07-16T17:03:53;26.50;45.10
54960;DHT22;40860;51.710;8.736;2023-07-16T17:07:58;26.10;45.50
54960;DHT22;40860;51.710;8.736;2023-07-16T17:12:02;25.60;46.20
54960;DHT22;40860;51.710;8.736;2023-07-16T17:16:06;25.40;46.50
54960;DHT22;40860;51.710;8.736;2023-07-16T17:20:11;25.30;46.70
54960;DHT22;40860;51.710;8.736;2023-07-16T17:24:14;25.10;47.20
54960;DHT22;40860;51.710;8.736;2023-07-16T17:28:17;24.90;47.00
54960;DHT22;40860;51.710;8.736;2023-07-16T17:32:22;24.80;47.50
54960;DHT22;40860;51.710;8.736;2023-07-16T17:36:25;24.60;47.60
54960;DHT22;40860;51.710;8.736;2023-07-16T17:40:29;24.60;47.90
54960;DHT22;40860;51.710;8.736;2023-07-16T17:44:32;24.60;47.70
54960;DHT22;40860;51.710;8.736;2023-07-16T17:48:36;24.50;48.10
54960;DHT22;40860;51.710;8.736;2023-07-16T17:52:41;24.50;48.20
54960;DHT22;40860;51.710;8.736;2023-07-16T17:56:44;24.40;48.60
54960;DHT22;40860;51.710;8.736;2023-07-16T18:00:47;24.40;48.50
54960;DHT22;40860;51.710;8.736;2023-07-16T18:04:52;24.40;48.80
54960;DHT22;40860;51.710;8.736;2023-07-16T18:08:57;24.40;49.10
54960;DHT22;40860;51.710;8.736;2023-07-16T18:13:01;24.40;48.90
54960;DHT22;40860;51.710;8.736;2023-07-16T18:17:07;24.30;48.90
54960;DHT22;40860;51.710;8.736;2023-07-16T18:21:13;24.30;49.30
54960;DHT22;40860;51.710;8.736;2023-07-16T18:25:38;24.30;49.00
54960;DHT22;40860;51.710;8.736;2023-07-16T18:29:42;24.20;50.20
54960;DHT22;40860;51.710;8.736;2023-07-16T18:33:48;24.00;50.40
54960;DHT22;40860;51.710;8.736;2023-07-16T18:37:56;23.90;50.50
54960;DHT22;40860;51.710;8.736;2023-07-16T18:42:01;23.80;50.50
54960;DHT22;40860;51.710;8.736;2023-07-16T18:46:05;23.70;50.00
54960;DHT22;40860;51.710;8.736;2023-07-16T18:50:09;23.60;49.60
54960;DHT22;40860;51.710;8.736;2023-07-16T18:54:13;23.50;49.70
54960;DHT22;40860;51.710;8.736;2023-07-16T18:58:17;23.50;50.50
54960;DHT22;40860;51.710;8.736;2023-07-16T19:02:20;23.30;50.90
54960;DHT22;40860;51.710;8.736;2023-07-16T19:06:24;23.20;51.20
54960;DHT22;40860;51.710;8.736;2023-07-16T19:10:29;23.10;51.50
54960;DHT22;40860;51.710;8.736;2023-07-16T19:14:32;23.00;51.80
54960;DHT22;40860;51.710;8.736;2023-07-16T19:18:36;22.80;52.60
54960;DHT22;40860;51.710;8.736;2023-07-16T19:22:39;22.50;53.00
54960;DHT22;40860;51.710;8.736;2023-07-16T19:26:47;22.40;53.40
54960;DHT22;40860;51.710;8.736;2023-07-16T19:30:50;22.20;53.70
54960;DHT22;40860;51.710;8.736;2023-07-16T19:34:53;22.00;53.90
54960;DHT22;40860;51.710;8.736;2023-07-16T19:38:56;21.90;54.20
54960;DHT22;40860;51.710;8.736;2023-07-16T19:43:01;21.80;54.40
54960;DHT22;40860;51.710;8.736;2023-07-16T19:47:04;21.70;54.60
54960;DHT22;40860;51.710;8.736;2023-07-16T19:51:08;21.60;54.90
54960;DHT22;40860;51.710;8.736;2023-07-16T19:55:11;21.60;55.00
54960;DHT22;40860;51.710;8.736;2023-07-16T19:59:15;21.50;56.00
54960;DHT22;40860;51.710;8.736;2023-07-16T20:03:18;21.30;56.10
54960;DHT22;40860;51.710;8.736;2023-07-16T20:07:22;21.30;56.50
54960;DHT22;40860;51.710;8.736;2023-07-16T20:11:26;21.20;57.50
54960;DHT22;40860;51.710;8.736;2023-07-16T20:15:31;21.10;58.20
54960;DHT22;40860;51.710;8.736;2023-07-16T20:19:34;20.90;58.20
54960;DHT22;40860;51.710;8.736;2023-07-16T20:23:37;20.80;59.20
54960;DHT22;40860;51.710;8.736;2023-07-16T20:27:43;20.70;58.50
54960;DHT22;40860;51.710;8.736;2023-07-16T20:31:48;20.70;58.70
54960;DHT22;40860;51.710;8.736;2023-07-16T20:35:51;20.70;58.30
54960;DHT22;40860;51.710;8.736;2023-07-16T20:39:55;20.70;58.10
54960;DHT22;40860;51.710;8.736;2023-07-16T20:43:58;20.80;58.10
54960;DHT22;40860;51.710;8.736;2023-07-16T20:48:03;20.80;57.90
54960;DHT22;40860;51.710;8.736;2023-07-16T20:52:07;20.80;58.30
54960;DHT22;40860;51.710;8.736;2023-07-16T20:56:10;20.80;58.60
54960;DHT22;40860;51.710;8.736;2023-07-16T21:00:14;20.80;58.40
54960;DHT22;40860;51.710;8.736;2023-07-16T21:04:19;20.90;58.70
54960;DHT22;40860;51.710;8.736;2023-07-16T21:08:22;20.70;59.20
54960;DHT22;40860;51.710;8.736;2023-07-16T21:12:25;20.70;59.90
54960;DHT22;40860;51.710;8.736;2023-07-16T21:16:28;20.50;60.80
54960;DHT22;40860;51.710;8.736;2023-07-16T21:20:36;20.50;60.60
54960;DHT22;40860;51.710;8.736;2023-07-16T21:24:40;20.50;61.50
54960;DHT22;40860;51.710;8.736;2023-07-16T21:28:43;20.40;61.90
54960;DHT22;40860;51.710;8.736;2023-07-16T21:32:46;20.30;61.90
54960;DHT22;40860;51.710;8.736;2023-07-16T21:36:51;20.30;61.80
54960;DHT22;40860;51.710;8.736;2023-07-16T21:40:54;20.20;62.00
54960;DHT22;40860;51.710;8.736;2023-07-16T21:44:57;20.20;60.20
54960;DHT22;40860;51.710;8.736;2023-07-16T21:49:00;20.30;59.80
54960;DHT22;40860;51.710;8.736;2023-07-16T21:53:12;20.20;60.40
54960;DHT22;40860;51.710;8.736;2023-07-16T21:57:15;20.20;60.50
54960;DHT22;40860;51.710;8.736;2023-07-16T22:01:18;20.10;59.80
54960;DHT22;40860;51.710;8.736;2023-07-16T22:05:21;20.10;59.00
54960;DHT22;40860;51.710;8.736;2023-07-16T22:09:25;20.20;58.90
54960;DHT22;40860;51.710;8.736;2023-07-16T22:13:28;20.20;58.70
54960;DHT22;40860;51.710;8.736;2023-07-16T22:17:31;20.20;58.40
54960;DHT22;40860;51.710;8.736;2023-07-16T22:21:35;20.20;58.20
54960;DHT22;40860;51.710;8.736;2023-07-16T22:25:39;20.20;58.10
54960;DHT22;40860;51.710;8.736;2023-07-16T22:29:42;20.10;58.20
54960;DHT22;40860;51.710;8.736;2023-07-16T22:33:45;20.10;58.30
54960;DHT22;40860;51.710;8.736;2023-07-16T22:37:48;20.00;59.30
54960;DHT22;40860;51.710;8.736;2023-07-16T22:41:52;19.90;59.80
54960;DHT22;40860;51.710;8.736;2023-07-16T22:45:55;19.80;60.50
54960;DHT22;40860;51.710;8.736;2023-07-16T22:49:58;19.70;62.00
54960;DHT22;40860;51.710;8.736;2023-07-16T22:54:01;19.60;62.40
54960;DHT22;40860;51.710;8.736;2023-07-16T22:58:08;19.40;62.60
54960;DHT22;40860;51.710;8.736;2023-07-16T23:02:10;19.30;62.30
54960;DHT22;40860;51.710;8.736;2023-07-16T23:06:13;19.30;61.20
54960;DHT22;40860;51.710;8.736;2023-07-16T23:10:16;19.30;60.70
54960;DHT22;40860;51.710;8.736;2023-07-16T23:14:21;19.30;60.60
54960;DHT22;40860;51.710;8.736;2023-07-16T23:18:24;19.30;60.90
54960;DHT22;40860;51.710;8.736;2023-07-16T23:22:27;19.30;60.60
54960;DHT22;40860;51.710;8.736;2023-07-16T23:26:30;19.20;60.90
54960;DHT22;40860;51.710;8.736;2023-07-16T23:30:35;19.10;61.40
54960;DHT22;40860;51.710;8.736;2023-07-16T23:34:38;19.00;61.60
54960;DHT22;40860;51.710;8.736;2023-07-16T23:38:42;19.00;61.70
54960;DHT22;40860;51.710;8.736;2023-07-16T23:42:44;19.00;62.10
54960;DHT22;40860;51.710;8.736;2023-07-16T23:46:49;19.00;62.30
54960;DHT22;40860;51.710;8.736;2023-07-16T23:50:52;18.90;62.70
54960;DHT22;40860;51.710;8.736;2023-07-16T23:54:55;18.80;63.60
54960;DHT22;40860;51.710;8.736;2023-07-16T23:58:58;18.70;63.60
